createdAt,value
2017-12-01T00:02:15.519Z,26.12
2017-12-01T00:04:44.066Z,27.55
2017-12-01T00:07:11.893Z,25.65
2017-12-01T00:09:39.634Z,26.45
2017-12-01T00:12:07.433Z,28.92
2017-12-01T00:14:35.230Z,26.65
2017-12-01T00:17:03.004Z,28.95
2017-12-01T00:19:31.510Z,31.55
2017-12-01T00:21:59.305Z,30.10
2017-12-01T00:24:27.050Z,29.92
2017-12-01T00:26:54.797Z,30.20
2017-12-01T00:29:22.601Z,29.80
2017-12-01T00:31:50.350Z,29.98
2017-12-01T00:34:18.146Z,29.12
2017-12-01T00:36:45.959Z,31.52
2017-12-01T00:39:13.719Z,26.10
2017-12-01T00:41:41.472Z,27.37
2017-12-01T00:44:09.275Z,24.83
2017-12-01T00:46:37.043Z,28.55
2017-12-01T00:49:04.792Z,28.00
2017-12-01T00:51:32.626Z,26.90
2017-12-01T00:54:00.374Z,24.60
2017-12-01T00:56:28.122Z,27.58
2017-12-01T00:58:56.726Z,27.87
2017-12-01T01:01:24.501Z,24.67
2017-12-01T01:03:52.271Z,24.75
2017-12-01T01:06:20.077Z,26.73
2017-12-01T01:08:48.599Z,26.70
2017-12-01T01:11:16.374Z,28.52
2017-12-01T01:13:44.209Z,26.15
2017-12-01T01:16:11.958Z,23.45
2017-12-01T01:18:40.516Z,26.60
2017-12-01T01:21:08.335Z,23.02
2017-12-01T01:23:36.099Z,24.63
2017-12-01T01:26:03.838Z,23.98
2017-12-01T01:28:31.653Z,26.35
2017-12-01T01:30:59.426Z,25.58
2017-12-01T01:33:27.181Z,25.58
2017-12-01T01:35:54.982Z,24.92
2017-12-01T01:38:22.735Z,24.60
2017-12-01T01:40:51.303Z,29.37
2017-12-01T01:43:19.881Z,26.73
2017-12-01T01:45:48.394Z,24.48
2017-12-01T01:48:16.155Z,25.42
2017-12-01T01:50:43.980Z,23.73
2017-12-01T01:53:11.739Z,23.38
2017-12-01T01:55:39.499Z,22.98
2017-12-01T01:58:07.327Z,23.48
2017-12-01T02:00:35.083Z,24.27
2017-12-01T02:03:02.842Z,23.67
2017-12-01T02:05:30.686Z,23.50
2017-12-01T02:07:58.502Z,22.33
2017-12-01T02:10:26.323Z,19.42
2017-12-01T02:12:54.259Z,23.30
2017-12-01T02:15:22.783Z,24.58
2017-12-01T02:17:50.543Z,24.02
2017-12-01T02:20:18.361Z,24.55
2017-12-01T02:22:46.881Z,25.05
2017-12-01T02:25:14.701Z,24.10
2017-12-01T02:27:43.290Z,24.65
2017-12-01T02:30:11.814Z,22.40
2017-12-01T02:32:39.601Z,24.75
2017-12-01T02:35:07.459Z,21.83
2017-12-01T02:37:35.249Z,23.10
2017-12-01T02:40:03.782Z,23.98
2017-12-01T02:42:31.611Z,22.65
2017-12-01T02:44:59.439Z,25.37
2017-12-01T02:47:27.206Z,22.48
2017-12-01T02:49:55.787Z,22.30
2017-12-01T02:52:23.547Z,21.55
2017-12-01T02:54:51.986Z,19.40
2017-12-01T02:57:19.809Z,20.23
2017-12-01T02:59:48.335Z,22.08
2017-12-01T03:02:16.086Z,20.88
2017-12-01T03:04:43.975Z,21.48
2017-12-01T03:07:11.730Z,20.60
2017-12-01T03:09:39.493Z,20.73
2017-12-01T03:12:07.314Z,21.95
2017-12-01T03:14:35.066Z,22.55
2017-12-01T03:17:02.828Z,22.98
2017-12-01T03:19:30.645Z,22.13
2017-12-01T03:21:58.402Z,22.60
2017-12-01T03:24:26.163Z,22.80
2017-12-01T03:26:53.981Z,22.15
2017-12-01T03:29:21.737Z,23.00
2017-12-01T03:31:49.493Z,22.17
2017-12-01T03:34:17.314Z,22.83
2017-12-01T03:36:45.075Z,23.35
2017-12-01T03:39:12.843Z,20.83
2017-12-01T03:41:40.729Z,23.90
2017-12-01T03:44:09.256Z,23.25
2017-12-01T03:46:37.014Z,22.45
2017-12-01T03:49:04.839Z,20.60
2017-12-01T03:51:33.363Z,20.95
2017-12-01T03:54:01.129Z,24.80
2017-12-01T03:56:29.029Z,23.05
2017-12-01T03:58:57.566Z,21.40
2017-12-01T04:01:25.322Z,25.30
2017-12-01T04:03:53.134Z,22.25
2017-12-01T04:06:20.900Z,24.80
2017-12-01T04:08:48.654Z,24.45
2017-12-01T04:11:16.474Z,24.17
2017-12-01T04:13:44.242Z,24.42
2017-12-01T04:16:12.006Z,25.10
2017-12-01T04:18:39.826Z,25.52
2017-12-01T04:21:08.350Z,25.02
2017-12-01T04:23:36.114Z,24.90
2017-12-01T04:26:03.946Z,25.25
2017-12-01T04:28:31.697Z,21.73
2017-12-01T04:31:00.230Z,26.42
2017-12-01T04:33:28.049Z,26.37
2017-12-01T04:35:55.811Z,26.75
2017-12-01T04:38:23.567Z,24.15
2017-12-01T04:40:51.400Z,28.48
2017-12-01T04:43:19.155Z,27.45
2017-12-01T04:45:46.909Z,27.67
2017-12-01T04:48:14.730Z,27.70
2017-12-01T04:50:42.498Z,27.60
2017-12-01T04:53:10.250Z,25.85
2017-12-01T04:55:38.082Z,26.12
2017-12-01T04:58:06.602Z,26.48
2017-12-01T05:00:34.492Z,26.95
2017-12-01T05:03:02.314Z,22.67
2017-12-01T05:05:30.088Z,23.92
2017-12-01T05:07:57.857Z,23.25
2017-12-01T05:10:25.681Z,19.55
2017-12-01T05:12:54.200Z,21.37
2017-12-01T05:15:21.976Z,22.35
2017-12-01T05:17:50.594Z,19.85
2017-12-01T05:20:18.351Z,21.48
2017-12-01T05:22:46.111Z,20.20
2017-12-01T05:25:13.937Z,24.15
2017-12-01T05:27:41.721Z,21.45
2017-12-01T05:30:09.480Z,24.08
2017-12-01T05:32:37.350Z,25.73
2017-12-01T05:35:05.108Z,25.33
2017-12-01T05:37:32.870Z,24.42
2017-12-01T05:40:00.687Z,23.05
2017-12-01T05:42:28.459Z,24.00
2017-12-01T05:44:56.222Z,27.55
2017-12-01T05:47:24.038Z,29.63
2017-12-01T05:49:51.794Z,27.85
2017-12-01T05:52:19.554Z,27.75
2017-12-01T05:54:47.413Z,28.12
2017-12-01T05:57:15.178Z,28.40
2017-12-01T05:59:42.939Z,28.30
2017-12-01T06:02:10.895Z,30.52
2017-12-01T06:04:38.655Z,30.90
2017-12-01T06:07:06.414Z,27.42
2017-12-01T06:09:34.224Z,28.15
2017-12-01T06:12:02.058Z,27.13
2017-12-01T06:14:30.602Z,27.05
2017-12-01T06:16:58.414Z,27.27
2017-12-01T06:19:26.954Z,26.10
2017-12-01T06:21:54.742Z,26.40
2017-12-01T06:24:22.557Z,28.48
2017-12-01T06:26:50.321Z,26.10
2017-12-01T06:29:18.071Z,25.40
2017-12-01T06:31:45.882Z,25.88
2017-12-01T06:34:13.634Z,28.42
2017-12-01T06:36:41.391Z,29.35
2017-12-01T06:39:09.209Z,26.25
2017-12-01T06:41:36.984Z,26.15
2017-12-01T06:44:04.747Z,25.45
2017-12-01T06:46:32.563Z,26.45
2017-12-01T06:49:00.321Z,26.00
2017-12-01T06:51:28.087Z,24.10
2017-12-01T06:53:55.906Z,25.12
2017-12-01T06:56:23.649Z,22.52
2017-12-01T06:58:51.402Z,23.60
2017-12-01T07:01:19.979Z,24.92
2017-12-01T07:03:48.499Z,26.95
2017-12-01T07:06:16.257Z,24.95
2017-12-01T07:08:44.102Z,25.88
2017-12-01T07:11:11.852Z,23.65
2017-12-01T07:13:39.622Z,27.92
2017-12-01T07:16:07.439Z,29.48
2017-12-01T07:18:35.187Z,29.02
2017-12-01T07:21:03.698Z,28.48
2017-12-01T07:23:32.265Z,27.25
2017-12-01T07:26:05.838Z,28.48
2017-12-01T07:28:33.646Z,28.27
2017-12-01T07:31:02.153Z,27.35
2017-12-01T07:33:29.902Z,26.62
2017-12-01T07:35:57.705Z,30.17
2017-12-01T07:38:25.472Z,26.20
2017-12-01T07:40:53.996Z,25.08
2017-12-01T07:43:22.582Z,27.35
2017-12-01T07:45:51.138Z,25.12
2017-12-01T07:48:18.898Z,23.48
2017-12-01T07:50:46.770Z,22.83
2017-12-01T07:53:15.297Z,23.55
2017-12-01T07:55:43.069Z,21.12
2017-12-01T07:58:10.881Z,21.05
2017-12-01T08:00:39.403Z,20.50
2017-12-01T08:03:07.161Z,19.40
2017-12-01T08:05:34.989Z,19.85
2017-12-01T08:08:03.510Z,19.00
2017-12-01T08:10:31.266Z,18.33
2017-12-01T08:12:59.088Z,20.15
2017-12-01T08:15:27.614Z,20.33
2017-12-01T08:31:22.151Z,19.42
2017-12-01T08:33:49.894Z,21.10
2017-12-01T08:36:18.406Z,22.42
2017-12-01T08:38:46.202Z,20.23
2017-12-01T08:41:13.950Z,18.42
2017-12-01T08:43:41.697Z,20.58
2017-12-01T08:46:09.498Z,18.90
2017-12-01T08:48:37.269Z,19.98
2017-12-01T08:51:05.022Z,18.23
2017-12-01T08:53:32.833Z,21.50
2017-12-01T08:56:00.594Z,18.80
2017-12-01T08:58:28.334Z,19.95
2017-12-01T09:00:56.898Z,18.58
2017-12-01T09:03:24.660Z,18.05
2017-12-01T09:05:53.171Z,18.50
2017-12-01T09:08:20.970Z,18.83
2017-12-01T09:10:48.718Z,16.55
2017-12-01T09:13:16.478Z,17.98
2017-12-01T09:15:44.290Z,15.82
2017-12-01T09:18:12.806Z,15.70
2017-12-01T09:20:40.569Z,14.80
2017-12-01T09:23:08.367Z,15.32
2017-12-01T09:25:36.111Z,15.27
2017-12-01T09:28:03.867Z,14.50
2017-12-01T09:30:31.668Z,13.35
2017-12-01T09:32:59.410Z,14.80
2017-12-01T09:35:27.939Z,15.85
2017-12-01T09:37:55.734Z,17.52
2017-12-01T09:40:23.494Z,16.20
2017-12-01T09:42:51.258Z,14.38
2017-12-01T09:45:19.086Z,16.40
2017-12-01T09:47:46.830Z,15.38
2017-12-01T09:50:15.349Z,16.70
2017-12-01T09:52:43.179Z,13.48
2017-12-01T09:55:11.691Z,15.13
2017-12-01T09:57:39.463Z,14.45
2017-12-01T10:00:07.299Z,18.42
2017-12-01T10:02:35.064Z,16.77
2017-12-01T10:05:02.811Z,16.87
2017-12-01T10:07:31.378Z,17.85
2017-12-01T10:09:59.125Z,18.33
2017-12-01T10:12:26.871Z,16.12
2017-12-01T10:14:54.670Z,17.60
2017-12-01T10:17:22.454Z,16.80
2017-12-01T10:19:50.202Z,17.12
2017-12-01T10:22:18.765Z,18.48
2017-12-01T10:24:46.514Z,18.08
2017-12-01T10:27:14.295Z,20.33
2017-12-01T10:29:42.864Z,17.92
2017-12-01T10:32:10.715Z,18.25
2017-12-01T10:34:38.461Z,15.52
2017-12-01T10:37:06.270Z,17.90
2017-12-01T10:39:34.778Z,17.50
2017-12-01T10:42:02.522Z,17.58
2017-12-01T10:44:30.323Z,21.00
2017-12-01T10:46:58.082Z,17.05
2017-12-01T10:49:25.826Z,19.73
2017-12-01T10:51:53.635Z,16.90
2017-12-01T10:54:21.387Z,17.70
2017-12-01T10:56:49.130Z,17.60
2017-12-01T10:59:17.697Z,16.98
2017-12-01T11:01:45.450Z,17.55
2017-12-01T11:04:13.187Z,18.90
2017-12-01T11:06:41.750Z,15.93
2017-12-01T11:09:09.495Z,15.52
2017-12-01T11:11:37.258Z,14.13
2017-12-01T11:14:05.055Z,16.70
2017-12-01T11:16:32.806Z,16.55
2017-12-01T11:19:01.322Z,13.62
2017-12-01T11:21:29.132Z,15.63
2017-12-01T11:23:56.890Z,13.82
2017-12-01T11:26:24.633Z,14.90
2017-12-01T11:28:52.430Z,14.63
2017-12-01T11:31:20.938Z,14.27
2017-12-01T11:33:48.678Z,16.12
2017-12-01T11:36:17.241Z,14.90
2017-12-01T11:38:44.985Z,13.62
2017-12-01T11:41:12.726Z,16.12
2017-12-01T11:43:40.532Z,15.20
2017-12-01T11:46:09.039Z,15.57
2017-12-01T11:48:36.780Z,16.83
2017-12-01T11:51:05.348Z,16.92
2017-12-01T11:53:33.087Z,17.15
2017-12-01T11:56:01.659Z,17.08
2017-12-01T11:58:29.492Z,19.15
2017-12-01T12:00:57.297Z,20.52
2017-12-01T12:03:25.092Z,31.87
2017-12-01T12:05:53.677Z,19.30
2017-12-01T12:08:22.232Z,17.87
2017-12-01T12:10:50.039Z,19.98
2017-12-01T12:13:17.917Z,19.45
2017-12-01T12:15:45.763Z,17.92
2017-12-01T12:18:13.616Z,18.52
2017-12-01T12:20:41.473Z,19.33
2017-12-01T12:23:10.027Z,18.37
2017-12-01T12:25:37.881Z,18.05
2017-12-01T12:28:05.760Z,19.83
2017-12-01T12:30:33.591Z,19.25
2017-12-01T12:33:01.407Z,16.83
2017-12-01T12:35:30.035Z,17.33
2017-12-01T12:37:57.840Z,18.87
2017-12-01T12:40:26.425Z,18.83
2017-12-01T12:42:55.047Z,19.42
2017-12-01T12:45:22.836Z,22.62
2017-12-01T12:47:50.637Z,21.65
2017-12-01T12:50:19.269Z,22.23
2017-12-01T12:52:47.092Z,22.13
2017-12-01T12:55:14.904Z,20.00
2017-12-01T12:57:42.788Z,19.00
2017-12-01T13:00:10.622Z,18.85
2017-12-01T13:02:38.479Z,18.35
2017-12-01T13:05:06.354Z,18.50
2017-12-01T13:07:34.132Z,20.08
2017-12-01T13:10:01.916Z,18.60
2017-12-01T13:12:30.552Z,17.73
2017-12-01T13:14:58.368Z,19.58
2017-12-01T13:17:26.924Z,19.87
2017-12-01T13:19:54.807Z,18.58
2017-12-01T13:22:23.356Z,20.12
2017-12-01T13:24:51.932Z,21.98
2017-12-01T13:27:19.805Z,21.02
2017-12-01T13:29:47.632Z,21.52
2017-12-01T13:32:15.437Z,20.62
2017-12-01T13:34:43.303Z,20.35
2017-12-01T13:37:11.115Z,24.30
2017-12-01T13:39:38.934Z,25.40
2017-12-01T13:42:06.796Z,34.40
2017-12-01T13:44:34.612Z,24.95
2017-12-01T13:47:02.431Z,23.50
2017-12-01T13:49:30.292Z,25.75
2017-12-01T13:51:58.107Z,22.87
2017-12-01T13:54:25.905Z,21.67
2017-12-01T13:56:53.780Z,24.27
2017-12-01T13:59:21.542Z,21.87
2017-12-01T14:01:49.347Z,20.92
2017-12-01T14:04:17.180Z,21.05
2017-12-01T14:06:45.727Z,21.20
2017-12-01T14:09:13.471Z,23.70
2017-12-01T14:11:41.264Z,23.92
2017-12-01T14:14:08.995Z,21.65
2017-12-01T14:16:36.727Z,20.55
2017-12-01T14:19:04.535Z,22.10
2017-12-01T14:21:32.270Z,26.02
2017-12-01T14:24:00.009Z,23.83
2017-12-01T14:26:27.809Z,28.60
2017-12-01T14:28:55.545Z,26.80
2017-12-01T14:31:23.281Z,29.40
2017-12-01T14:33:51.844Z,30.15
2017-12-01T14:36:19.591Z,31.00
2017-12-01T14:38:47.348Z,31.58
2017-12-01T14:41:15.915Z,29.20
2017-12-01T14:43:43.651Z,29.10
2017-12-01T14:46:11.388Z,30.35
2017-12-01T14:48:39.947Z,29.00
2017-12-01T14:51:07.696Z,26.85
2017-12-01T14:53:35.441Z,26.60
2017-12-01T14:56:03.243Z,30.90
2017-12-01T14:58:31.753Z,26.98
2017-12-01T15:00:59.503Z,25.55
2017-12-01T15:03:27.312Z,29.52
2017-12-01T15:05:55.829Z,27.30
2017-12-01T15:08:24.340Z,28.15
2017-12-01T15:10:52.137Z,32.50
2017-12-01T15:13:19.875Z,30.33
2017-12-01T15:15:47.609Z,29.20
2017-12-01T15:18:15.451Z,30.73
2017-12-01T15:20:43.956Z,33.97
2017-12-01T15:23:11.694Z,31.35
2017-12-01T15:25:40.267Z,33.38
2017-12-01T15:28:08.009Z,31.90
2017-12-01T15:30:35.772Z,33.13
2017-12-01T15:33:03.581Z,35.80
2017-12-01T15:35:31.326Z,34.92
2017-12-01T15:37:59.125Z,33.90
2017-12-01T15:40:27.014Z,34.83
2017-12-01T15:42:54.795Z,37.17
2017-12-01T15:45:22.580Z,35.70
2017-12-01T15:47:51.203Z,34.63
2017-12-01T15:50:18.992Z,33.47
2017-12-01T15:52:46.780Z,44.55
2017-12-01T15:55:15.395Z,78.80
2017-12-01T15:57:43.188Z,49.75
2017-12-01T16:00:11.009Z,37.45
2017-12-01T16:02:38.924Z,37.28
2017-12-01T16:05:06.778Z,34.45
2017-12-01T16:07:34.580Z,33.67
2017-12-01T16:10:03.276Z,34.28
2017-12-01T16:12:31.901Z,31.77
2017-12-01T16:14:59.828Z,33.55
2017-12-01T16:17:27.736Z,33.15
2017-12-01T16:19:55.556Z,30.98
2017-12-01T16:22:23.371Z,33.95
2017-12-01T16:24:51.232Z,32.83
2017-12-01T16:27:19.839Z,30.12
2017-12-01T16:29:47.643Z,34.08
2017-12-01T16:32:15.512Z,33.58
2017-12-01T16:34:43.406Z,39.58
2017-12-01T16:37:12.025Z,39.25
2017-12-01T16:39:41.486Z,36.22
2017-12-01T16:42:10.679Z,36.83
2017-12-01T16:44:39.977Z,39.47
2017-12-01T16:47:08.354Z,39.97
2017-12-01T16:49:37.554Z,37.50
2017-12-01T16:52:05.808Z,41.22
2017-12-01T16:54:35.223Z,41.42
2017-12-01T16:57:04.543Z,42.40
2017-12-01T16:59:34.537Z,42.97
2017-12-01T17:02:04.451Z,44.78
2017-12-01T17:04:35.370Z,39.20
2017-12-01T17:07:06.949Z,37.15
2017-12-01T17:09:37.931Z,41.28
2017-12-01T17:12:09.376Z,41.13
2017-12-01T17:14:40.782Z,40.10
2017-12-01T17:17:12.157Z,39.97
2017-12-01T17:19:42.457Z,41.03
2017-12-01T17:22:13.502Z,44.30
2017-12-01T17:24:45.038Z,45.08
2017-12-01T17:27:13.924Z,53.67
2017-12-01T17:29:44.931Z,47.30
2017-12-01T17:32:16.250Z,51.47
2017-12-01T17:37:22.376Z,46.20
2017-12-01T17:39:54.059Z,48.92
2017-12-01T17:42:25.410Z,49.92
2017-12-01T17:44:56.952Z,50.85
2017-12-01T17:47:29.382Z,66.70
2017-12-01T17:50:00.958Z,60.33
2017-12-01T17:52:32.634Z,63.75
2017-12-01T17:55:12.838Z,58.45
2017-12-01T17:57:49.215Z,55.92
2017-12-01T18:00:20.468Z,52.42
2017-12-01T18:02:49.332Z,57.33
2017-12-01T18:05:20.305Z,55.60
2017-12-01T18:07:51.838Z,54.83
2017-12-01T18:10:23.404Z,57.58
2017-12-01T18:12:52.385Z,56.70
2017-12-01T18:15:24.442Z,55.83
2017-12-01T18:17:53.302Z,57.60
2017-12-01T18:20:24.714Z,58.35
2017-12-01T18:22:54.366Z,56.95
2017-12-01T18:25:25.557Z,58.83
2017-12-01T18:27:57.311Z,52.42
2017-12-01T18:30:28.856Z,57.22
2017-12-01T18:32:58.367Z,53.25
2017-12-01T18:35:30.820Z,57.78
2017-12-01T18:38:02.685Z,56.88
2017-12-01T18:40:34.437Z,57.58
2017-12-01T18:43:06.708Z,55.88
2017-12-01T18:45:38.277Z,53.50
2017-12-01T18:48:10.081Z,56.60
2017-12-01T18:50:41.734Z,58.50
2017-12-01T18:53:13.484Z,61.75
2017-12-01T18:55:45.110Z,61.75
2017-12-01T18:58:16.855Z,68.45
2017-12-01T19:00:48.614Z,62.65
2017-12-01T19:03:18.356Z,59.28
2017-12-01T19:05:49.796Z,56.83
2017-12-01T19:08:22.571Z,63.67
2017-12-01T19:10:51.390Z,61.63
2017-12-01T19:13:22.679Z,57.30
2017-12-01T19:15:55.197Z,65.72
2017-12-01T19:18:27.048Z,65.30
2017-12-01T19:20:57.365Z,63.28
2017-12-01T19:23:31.474Z,69.72
2017-12-01T19:26:03.321Z,63.33
2017-12-01T19:28:35.072Z,71.12
2017-12-01T19:31:03.997Z,64.53
2017-12-01T19:33:32.488Z,66.07
2017-12-01T19:36:03.927Z,64.97
2017-12-01T19:38:35.959Z,64.45
2017-12-01T19:41:05.598Z,64.95
2017-12-01T19:43:37.194Z,62.53
2017-12-01T19:46:09.158Z,61.95
2017-12-01T19:48:41.061Z,58.50
2017-12-01T19:51:12.924Z,61.30
2017-12-01T19:53:44.697Z,58.55
2017-12-01T19:56:17.161Z,62.17
2017-12-01T19:58:51.132Z,60.53
2017-12-01T20:01:23.124Z,60.65
2017-12-01T20:03:55.026Z,64.10
2017-12-01T20:06:26.912Z,59.88
2017-12-01T20:09:01.498Z,57.33
2017-12-01T20:11:34.210Z,57.88
2017-12-01T20:14:06.294Z,57.92
2017-12-01T20:16:38.956Z,59.28
2017-12-01T20:19:11.048Z,53.40
2017-12-01T20:21:42.827Z,58.90
2017-12-01T20:24:14.734Z,58.95
2017-12-01T20:26:44.359Z,74.00
2017-12-01T20:29:12.286Z,77.47
2017-12-01T20:31:40.074Z,73.90
2017-12-01T20:34:07.856Z,61.15
2017-12-01T20:36:36.462Z,53.20
2017-12-01T20:39:04.259Z,50.88
2017-12-01T20:41:32.032Z,55.40
2017-12-01T20:43:59.863Z,56.63
2017-12-01T20:46:27.635Z,60.08
2017-12-01T20:48:55.413Z,59.10
2017-12-01T20:51:23.242Z,62.55
2017-12-01T20:53:51.011Z,59.63
2017-12-01T20:56:18.801Z,64.40
2017-12-01T20:58:46.631Z,62.83
2017-12-01T21:01:14.407Z,62.90
2017-12-01T21:03:42.183Z,55.63
2017-12-01T21:06:10.011Z,63.08
2017-12-01T21:08:37.817Z,58.75
2017-12-01T21:11:05.599Z,59.08
2017-12-01T21:13:33.473Z,56.72
2017-12-01T21:16:02.019Z,54.42
2017-12-01T21:18:29.819Z,59.17
2017-12-01T21:20:58.516Z,59.00
2017-12-01T21:23:26.298Z,54.25
2017-12-01T21:25:54.070Z,53.17
2017-12-01T21:28:21.898Z,53.58
2017-12-01T21:30:50.439Z,51.90
2017-12-01T21:33:18.232Z,49.47
2017-12-01T21:35:46.826Z,50.72
2017-12-01T21:38:14.619Z,51.05
2017-12-01T21:40:42.994Z,52.40
2017-12-01T21:43:10.831Z,51.60
2017-12-01T21:45:38.630Z,50.90
2017-12-01T21:48:06.415Z,51.35
2017-12-01T21:50:34.244Z,48.00
2017-12-01T21:53:02.003Z,51.78
2017-12-01T21:55:29.789Z,46.20
2017-12-01T21:57:57.595Z,50.97
2017-12-01T22:00:26.108Z,46.80
2017-12-01T22:02:53.851Z,47.92
2017-12-01T22:05:21.663Z,46.67
2017-12-01T22:07:49.419Z,42.70
2017-12-01T22:10:17.167Z,44.25
2017-12-01T22:12:44.976Z,43.35
2017-12-01T22:15:13.515Z,43.70
2017-12-01T22:17:41.264Z,46.50
2017-12-01T22:20:09.062Z,42.22
2017-12-01T22:22:36.812Z,44.45
2017-12-01T22:25:04.564Z,41.22
2017-12-01T22:27:32.413Z,39.28
2017-12-01T22:30:00.160Z,41.20
2017-12-01T22:32:27.942Z,38.03
2017-12-01T22:34:55.793Z,40.55
2017-12-01T22:37:24.383Z,38.95
2017-12-01T22:39:52.152Z,41.00
2017-12-01T22:42:19.967Z,38.83
2017-12-01T22:44:48.480Z,39.13
2017-12-01T22:47:16.263Z,38.97
2017-12-01T22:49:44.119Z,45.38
2017-12-01T22:52:11.889Z,44.97
2017-12-01T22:54:39.708Z,41.40
2017-12-01T22:57:07.519Z,39.97
2017-12-01T22:59:35.262Z,38.53
2017-12-01T23:02:03.014Z,41.80
2017-12-01T23:04:30.819Z,37.80
2017-12-01T23:06:58.562Z,36.20
2017-12-01T23:09:26.935Z,37.33
2017-12-01T23:11:54.758Z,34.53
2017-12-01T23:14:22.506Z,34.65
2017-12-01T23:16:51.042Z,34.63
2017-12-01T23:19:19.637Z,39.15
2017-12-01T23:21:47.386Z,33.67
2017-12-01T23:24:16.747Z,33.80
2017-12-01T23:26:44.612Z,34.13
2017-12-01T23:29:12.412Z,34.58
2017-12-01T23:31:40.276Z,34.35
2017-12-01T23:34:09.036Z,32.28
2017-12-01T23:36:37.579Z,32.33
2017-12-01T23:39:06.102Z,33.33
2017-12-01T23:41:34.046Z,31.85
2017-12-01T23:44:01.839Z,29.73
2017-12-01T23:46:29.717Z,30.70
2017-12-01T23:48:57.713Z,32.65
2017-12-01T23:51:26.310Z,32.97
2017-12-01T23:53:54.991Z,28.05
2017-12-01T23:56:23.574Z,31.73
2017-12-01T23:58:51.337Z,30.62
